Time;durP1;ratioP1;P1;durP2;ratioP2;P2;SDS_P1;SDS_P2;PMS_P1;PMS_P2;Temp;Humidity;BMP_temperature;BMP_pressure;BME280_temperature;BME280_humidity;BME280_pressure;Samples;Min_cycle;Max_cycle;Signal;HPM_P1;HPM_P2
2019/10/14 00:07:36;;;;;;;2.38;1.99;;;;;;;19.90;58.15;100408.69;;;;-58
2019/10/14 00:10:35;;;;;;;2.33;2.13;;;;;;;19.88;58.16;100403.51;;;;-58
2019/10/14 00:13:35;;;;;;;2.22;2.06;;;;;;;19.89;58.15;100409.05;;;;-58
2019/10/14 00:16:36;;;;;;;2.30;2.10;;;;;;;19.88;58.15;100395.53;;;;-58
2019/10/14 00:19:35;;;;;;;2.15;1.95;;;;;;;19.88;58.17;100401.39;;;;-58
2019/10/14 00:22:36;;;;;;;2.09;1.90;;;;;;;19.87;58.17;100400.84;;;;-58
2019/10/14 00:25:36;;;;;;;2.68;2.09;;;;;;;19.88;58.15;100392.67;;;;-57
2019/10/14 00:28:36;;;;;;;2.68;2.08;;;;;;;19.86;58.14;100391.69;;;;-58
2019/10/14 00:31:35;;;;;;;2.34;2.14;;;;;;;19.87;58.17;100385.26;;;;-58
2019/10/14 00:34:36;;;;;;;2.42;2.11;;;;;;;19.87;58.16;100393.14;;;;-58
2019/10/14 00:37:36;;;;;;;2.08;1.97;;;;;;;19.87;58.16;100392.13;;;;-58
2019/10/14 00:40:36;;;;;;;2.25;2.00;;;;;;;19.86;58.15;100395.52;;;;-58
2019/10/14 00:43:36;;;;;;;2.49;1.97;;;;;;;19.86;58.16;100398.70;;;;-58
2019/10/14 00:46:35;;;;;;;2.21;1.97;;;;;;;19.85;58.18;100397.81;;;;-57
2019/10/14 00:49:36;;;;;;;2.32;2.12;;;;;;;19.85;58.19;100403.52;;;;-58
2019/10/14 00:52:36;;;;;;;2.23;2.03;;;;;;;19.84;58.16;100404.01;;;;-58
2019/10/14 00:55:36;;;;;;;2.23;2.02;;;;;;;19.85;58.18;100402.10;;;;-58
2019/10/14 00:58:36;;;;;;;2.25;1.97;;;;;;;19.84;58.19;100405.58;;;;-57
2019/10/14 01:01:35;;;;;;;1.99;1.89;;;;;;;19.83;58.22;100403.80;;;;-58
2019/10/14 01:04:35;;;;;;;2.26;2.06;;;;;;;19.84;58.17;100405.31;;;;-58
2019/10/14 01:07:36;;;;;;;2.13;1.92;;;;;;;19.83;58.17;100404.13;;;;-58
2019/10/14 01:10:35;;;;;;;2.23;2.03;;;;;;;19.83;58.18;100407.15;;;;-57
2019/10/14 01:13:35;;;;;;;2.16;1.96;;;;;;;19.82;58.18;100414.48;;;;-58
2019/10/14 01:16:36;;;;;;;1.99;1.87;;;;;;;19.82;58.18;100411.03;;;;-58
2019/10/14 01:19:36;;;;;;;2.21;2.01;;;;;;;19.82;58.18;100409.63;;;;-58
2019/10/14 01:22:36;;;;;;;2.05;1.89;;;;;;;19.81;58.17;100405.95;;;;-58
2019/10/14 01:25:35;;;;;;;2.10;2.00;;;;;;;19.81;58.19;100412.33;;;;-58
2019/10/14 01:28:35;;;;;;;2.17;1.97;;;;;;;19.81;58.20;100413.16;;;;-58
2019/10/14 01:31:36;;;;;;;2.15;1.95;;;;;;;19.81;58.17;100415.84;;;;-58
2019/10/14 01:34:36;;;;;;;2.18;1.97;;;;;;;19.81;58.19;100420.88;;;;-57
2019/10/14 01:37:36;;;;;;;2.32;2.12;;;;;;;19.80;58.18;100426.03;;;;-58
2019/10/14 01:40:36;;;;;;;2.12;1.91;;;;;;;19.80;58.20;100422.00;;;;-58
2019/10/14 01:43:36;;;;;;;2.05;1.93;;;;;;;19.80;58.20;100415.97;;;;-58
2019/10/14 01:46:36;;;;;;;2.37;2.17;;;;;;;19.79;58.21;100417.77;;;;-57
2019/10/14 01:49:35;;;;;;;2.19;2.01;;;;;;;19.79;58.17;100418.71;;;;-58
2019/10/14 01:52:36;;;;;;;2.05;1.88;;;;;;;19.79;58.20;100425.75;;;;-58
2019/10/14 01:55:36;;;;;;;2.03;1.89;;;;;;;19.79;58.20;100418.78;;;;-57
2019/10/14 01:58:36;;;;;;;1.91;1.81;;;;;;;19.78;58.21;100421.35;;;;-58
2019/10/14 02:01:36;;;;;;;2.27;1.97;;;;;;;19.78;58.20;100421.08;;;;-57
2019/10/14 02:04:35;;;;;;;1.92;1.80;;;;;;;19.79;58.18;100430.77;;;;-58
2019/10/14 02:07:36;;;;;;;2.19;1.95;;;;;;;19.79;58.20;100425.31;;;;-57
2019/10/14 02:10:35;;;;;;;2.41;1.97;;;;;;;19.77;58.21;100422.14;;;;-58
2019/10/14 02:13:36;;;;;;;1.99;1.89;;;;;;;19.78;58.21;100418.73;;;;-58
2019/10/14 02:16:35;;;;;;;2.07;1.94;;;;;;;19.77;58.22;100419.80;;;;-58
2019/10/14 02:19:36;;;;;;;2.20;1.97;;;;;;;19.77;58.20;100423.31;;;;-58
2019/10/14 02:22:36;;;;;;;3.34;1.98;;;;;;;19.77;58.18;100421.70;;;;-58
2019/10/14 02:25:35;;;;;;;2.14;1.97;;;;;;;19.76;58.20;100426.63;;;;-58
2019/10/14 02:28:35;;;;;;;2.21;2.01;;;;;;;19.76;58.20;100420.09;;;;-58
2019/10/14 02:31:36;;;;;;;2.07;1.90;;;;;;;19.76;58.22;100422.17;;;;-59
2019/10/14 02:34:35;;;;;;;2.77;2.20;;;;;;;19.75;58.18;100424.41;;;;-58
2019/10/14 02:37:39;;;;;;;2.16;1.96;;;;;;;19.75;58.19;100417.43;;;;-59
2019/10/14 02:40:36;;;;;;;2.19;1.99;;;;;;;19.75;58.18;100420.55;;;;-58
2019/10/14 02:43:36;;;;;;;1.97;1.87;;;;;;;19.75;58.19;100426.41;;;;-57
2019/10/14 02:46:36;;;;;;;2.18;1.95;;;;;;;19.75;58.20;100433.13;;;;-57
2019/10/14 02:49:35;;;;;;;2.10;1.91;;;;;;;19.75;58.22;100433.12;;;;-58
2019/10/14 02:52:36;;;;;;;1.86;1.76;;;;;;;19.75;58.20;100430.37;;;;-58
2019/10/14 02:55:36;;;;;;;1.94;1.84;;;;;;;19.73;58.19;100429.52;;;;-58
2019/10/14 02:58:36;;;;;;;2.10;1.99;;;;;;;19.75;58.15;100432.62;;;;-58
2019/10/14 03:01:36;;;;;;;2.00;1.90;;;;;;;19.75;58.20;100433.05;;;;-59
2019/10/14 03:04:36;;;;;;;2.03;1.91;;;;;;;19.74;58.16;100428.31;;;;-57
2019/10/14 03:07:36;;;;;;;2.21;2.01;;;;;;;19.73;58.21;100426.84;;;;-58
2019/10/14 03:10:36;;;;;;;2.11;1.91;;;;;;;19.73;58.19;100427.00;;;;-58
2019/10/14 03:13:36;;;;;;;2.15;1.96;;;;;;;19.73;58.19;100431.13;;;;-58
2019/10/14 03:16:35;;;;;;;1.93;1.83;;;;;;;19.73;58.22;100433.64;;;;-57
2019/10/14 03:19:35;;;;;;;2.08;1.88;;;;;;;19.73;58.18;100436.68;;;;-58
2019/10/14 03:22:35;;;;;;;1.93;1.83;;;;;;;19.73;58.18;100436.68;;;;-58
2019/10/14 03:25:35;;;;;;;2.01;1.86;;;;;;;19.73;58.21;100438.45;;;;-57
2019/10/14 03:28:35;;;;;;;2.14;1.94;;;;;;;19.73;58.18;100437.62;;;;-58
2019/10/14 03:31:36;;;;;;;2.00;1.90;;;;;;;19.72;58.19;100440.59;;;;-58
2019/10/14 03:34:35;;;;;;;2.35;1.98;;;;;;;19.72;58.19;100441.66;;;;-57
2019/10/14 03:37:35;;;;;;;2.01;1.90;;;;;;;19.72;58.18;100442.67;;;;-57
2019/10/14 03:40:36;;;;;;;2.19;2.00;;;;;;;19.72;58.18;100441.94;;;;-58
2019/10/14 03:43:35;;;;;;;2.10;1.90;;;;;;;19.71;58.16;100442.44;;;;-58
2019/10/14 03:46:36;;;;;;;2.11;1.94;;;;;;;19.70;58.17;100440.37;;;;-58
2019/10/14 03:49:36;;;;;;;2.02;1.91;;;;;;;19.71;58.17;100437.59;;;;-58
2019/10/14 03:52:36;;;;;;;2.00;1.90;;;;;;;19.70;58.17;100435.19;;;;-58
2019/10/14 03:55:35;;;;;;;2.07;1.93;;;;;;;19.71;58.15;100435.52;;;;-57
2019/10/14 03:58:35;;;;;;;2.04;1.90;;;;;;;19.70;58.16;100435.02;;;;-58
2019/10/14 04:01:36;;;;;;;1.90;1.80;;;;;;;19.70;58.17;100434.54;;;;-58
2019/10/14 04:04:35;;;;;;;2.25;2.07;;;;;;;19.70;58.17;100438.44;;;;-58
2019/10/14 04:07:36;;;;;;;2.01;1.91;;;;;;;19.70;58.13;100436.48;;;;-58
2019/10/14 04:10:35;;;;;;;2.00;1.89;;;;;;;19.69;58.16;100432.45;;;;-59
2019/10/14 04:13:35;;;;;;;2.03;1.90;;;;;;;19.70;58.17;100435.20;;;;-57
2019/10/14 04:16:35;;;;;;;1.97;1.87;;;;;;;19.70;58.16;100436.55;;;;-59
2019/10/14 04:19:36;;;;;;;2.10;2.00;;;;;;;19.69;58.15;100436.81;;;;-57
2019/10/14 04:22:36;;;;;;;1.93;1.83;;;;;;;19.69;58.18;100434.70;;;;-58
2019/10/14 04:25:36;;;;;;;2.08;1.88;;;;;;;19.69;58.14;100439.50;;;;-58
2019/10/14 04:28:36;;;;;;;1.99;1.89;;;;;;;19.69;58.17;100440.30;;;;-59
2019/10/14 04:31:35;;;;;;;2.05;1.91;;;;;;;19.68;58.16;100436.10;;;;-57
2019/10/14 04:34:35;;;;;;;2.01;1.91;;;;;;;19.68;58.16;100434.77;;;;-57
2019/10/14 04:37:36;;;;;;;2.39;1.91;;;;;;;19.69;58.14;100429.97;;;;-58
2019/10/14 04:40:35;;;;;;;2.02;1.90;;;;;;;19.69;58.13;100429.84;;;;-57
2019/10/14 04:43:36;;;;;;;2.29;2.09;;;;;;;19.70;58.12;100434.54;;;;-58
2019/10/14 04:46:36;;;;;;;1.90;1.80;;;;;;;19.70;58.10;100433.03;;;;-57
2019/10/14 04:49:36;;;;;;;2.00;1.80;;;;;;;19.70;58.07;100431.39;;;;-57
2019/10/14 04:52:35;;;;;;;2.19;1.83;;;;;;;19.72;58.02;100432.92;;;;-58
2019/10/14 04:55:35;;;;;;;1.91;1.80;;;;;;;19.74;57.96;100430.56;;;;-58
2019/10/14 04:58:36;;;;;;;1.87;1.73;;;;;;;19.77;57.86;100428.91;;;;-58
2019/10/14 05:01:36;;;;;;;2.02;1.90;;;;;;;19.79;57.81;100431.01;;;;-58
2019/10/14 05:04:36;;;;;;;1.81;1.71;;;;;;;19.82;57.80;100429.23;;;;-58
2019/10/14 05:07:36;;;;;;;2.28;1.92;;;;;;;19.85;57.78;100423.95;;;;-58
2019/10/14 05:10:35;;;;;;;1.90;1.80;;;;;;;19.87;57.89;100419.72;;;;-58
2019/10/14 05:13:35;;;;;;;1.85;1.75;;;;;;;19.90;57.91;100425.22;;;;-58
2019/10/14 05:16:36;;;;;;;2.00;1.90;;;;;;;19.93;58.05;100420.00;;;;-58
2019/10/14 05:19:35;;;;;;;1.90;1.80;;;;;;;19.95;58.08;100422.97;;;;-58
2019/10/14 05:22:36;;;;;;;2.07;1.89;;;;;;;19.99;58.12;100428.03;;;;-58
2019/10/14 05:25:35;;;;;;;2.34;1.85;;;;;;;20.01;58.12;100429.63;;;;-58
2019/10/14 05:28:36;;;;;;;1.90;1.80;;;;;;;20.04;58.16;100432.16;;;;-58
2019/10/14 05:31:36;;;;;;;1.79;1.69;;;;;;;20.06;58.26;100427.95;;;;-58
2019/10/14 05:34:36;;;;;;;2.05;1.87;;;;;;;20.09;58.24;100432.88;;;;-58
2019/10/14 05:37:35;;;;;;;1.99;1.89;;;;;;;20.12;58.26;100436.02;;;;-58
2019/10/14 05:40:35;;;;;;;1.86;1.76;;;;;;;20.13;58.23;100435.73;;;;-57
2019/10/14 05:43:35;;;;;;;1.91;1.72;;;;;;;20.15;58.20;100433.63;;;;-58
2019/10/14 05:46:46;;;;;;;1.80;1.70;;;;;;;20.17;58.18;100434.22;;;;-58
2019/10/14 05:49:35;;;;;;;1.89;1.70;;;;;;;20.19;58.19;100437.95;;;;-58
2019/10/14 05:52:35;;;;;;;1.97;1.87;;;;;;;20.21;58.18;100440.98;;;;-58
2019/10/14 05:55:35;;;;;;;2.01;1.86;;;;;;;20.21;58.18;100438.58;;;;-58
2019/10/14 05:58:36;;;;;;;1.81;1.71;;;;;;;20.22;58.16;100441.47;;;;-58
2019/10/14 06:01:41;;;;;;;1.78;1.68;;;;;;;20.24;58.12;100444.59;;;;-58
2019/10/14 06:04:35;;;;;;;1.99;1.80;;;;;;;20.25;58.11;100449.16;;;;-58
2019/10/14 06:07:36;;;;;;;1.99;1.80;;;;;;;20.25;58.07;100458.36;;;;-58
2019/10/14 06:10:35;;;;;;;1.79;1.69;;;;;;;20.27;58.07;100461.32;;;;-58
2019/10/14 06:13:35;;;;;;;2.18;1.91;;;;;;;20.27;58.05;100464.61;;;;-57
2019/10/14 06:16:35;;;;;;;1.80;1.70;;;;;;;20.27;58.04;100464.55;;;;-58
2019/10/14 06:19:35;;;;;;;1.81;1.71;;;;;;;20.29;58.02;100473.84;;;;-58
2019/10/14 06:22:35;;;;;;;1.84;1.73;;;;;;;20.29;58.01;100477.27;;;;-58
2019/10/14 06:25:35;;;;;;;1.79;1.69;;;;;;;20.29;58.04;100479.38;;;;-58
2019/10/14 06:28:35;;;;;;;1.89;1.79;;;;;;;20.30;58.01;100483.08;;;;-58
2019/10/14 06:31:36;;;;;;;1.83;1.73;;;;;;;20.30;57.97;100477.08;;;;-58
2019/10/14 06:34:35;;;;;;;1.79;1.69;;;;;;;20.30;57.92;100473.72;;;;-58
2019/10/14 06:37:35;;;;;;;1.70;1.60;;;;;;;20.31;57.95;100474.50;;;;-58
2019/10/14 06:40:35;;;;;;;1.70;1.60;;;;;;;20.31;57.90;100475.41;;;;-58
2019/10/14 06:43:35;;;;;;;1.80;1.70;;;;;;;20.31;57.94;100471.48;;;;-58
2019/10/14 06:46:36;;;;;;;1.73;1.63;;;;;;;20.31;57.83;100468.13;;;;-57
2019/10/14 06:49:36;;;;;;;1.96;1.78;;;;;;;20.32;57.85;100469.91;;;;-58
2019/10/14 06:52:35;;;;;;;1.96;1.79;;;;;;;20.31;57.82;100469.98;;;;-58
2019/10/14 06:55:35;;;;;;;1.73;1.63;;;;;;;20.31;57.78;100464.27;;;;-58
2019/10/14 06:58:35;;;;;;;1.72;1.62;;;;;;;20.32;57.77;100472.03;;;;-58
2019/10/14 07:01:35;;;;;;;1.80;1.70;;;;;;;20.32;57.74;100471.86;;;;-58
2019/10/14 07:04:35;;;;;;;1.73;1.63;;;;;;;20.32;57.76;100474.21;;;;-58
2019/10/14 07:07:35;;;;;;;1.70;1.60;;;;;;;20.32;57.69;100477.23;;;;-58
2019/10/14 07:10:35;;;;;;;1.70;1.60;;;;;;;20.32;57.69;100474.14;;;;-58
2019/10/14 07:13:35;;;;;;;1.81;1.70;;;;;;;20.32;57.66;100479.68;;;;-58
2019/10/14 07:16:35;;;;;;;1.73;1.60;;;;;;;20.33;57.62;100479.62;;;;-58
2019/10/14 07:19:35;;;;;;;1.79;1.69;;;;;;;20.32;57.58;100475.48;;;;-58
2019/10/14 07:22:35;;;;;;;2.11;1.74;;;;;;;20.32;57.53;100468.17;;;;-58
2019/10/14 07:25:35;;;;;;;1.76;1.66;;;;;;;20.32;57.47;100476.06;;;;-58
2019/10/14 07:28:35;;;;;;;1.80;1.70;;;;;;;20.32;57.44;100472.03;;;;-58
2019/10/14 07:31:35;;;;;;;1.60;1.50;;;;;;;20.32;57.41;100470.69;;;;-58
2019/10/14 07:34:35;;;;;;;1.87;1.69;;;;;;;20.32;57.39;100477.23;;;;-57
2019/10/14 07:37:35;;;;;;;1.70;1.60;;;;;;;20.33;57.39;100471.30;;;;-57
2019/10/14 07:40:35;;;;;;;1.80;1.70;;;;;;;20.32;57.32;100466.73;;;;-54
2019/10/14 07:43:35;;;;;;;2.91;1.93;;;;;;;20.33;57.79;100474.92;;;;-45
2019/10/14 07:46:35;;;;;;;2.75;2.00;;;;;;;20.36;57.86;100467.77;;;;-58
2019/10/14 07:49:35;;;;;;;3.79;1.89;;;;;;;20.36;57.70;100464.14;;;;-58
2019/10/14 07:52:36;;;;;;;1.89;1.79;;;;;;;20.36;57.66;100468.27;;;;-49
2019/10/14 07:55:35;;;;;;;1.95;1.85;;;;;;;20.36;57.62;100465.15;;;;-49
2019/10/14 07:58:35;;;;;;;1.85;1.73;;;;;;;20.37;57.54;100466.70;;;;-49
2019/10/14 08:01:35;;;;;;;1.81;1.70;;;;;;;20.37;57.53;100465.86;;;;-49
2019/10/14 08:04:35;;;;;;;1.90;1.80;;;;;;;20.38;57.48;100466.67;;;;-48
2019/10/14 08:07:35;;;;;;;1.92;1.80;;;;;;;20.38;57.46;100468.69;;;;-48
2019/10/14 08:10:35;;;;;;;2.92;2.01;;;;;;;20.38;57.79;100466.91;;;;-46
2019/10/14 08:13:35;;;;;;;2.54;1.70;;;;;;;20.39;58.10;100469.23;;;;-51
2019/10/14 08:16:35;;;;;;;2.51;1.69;;;;;;;20.40;57.87;100465.72;;;;-51
2019/10/14 08:19:35;;;;;;;2.08;1.88;;;;;;;20.41;57.84;100466.42;;;;-51
2019/10/14 08:22:35;;;;;;;1.95;1.75;;;;;;;20.44;57.80;100468.49;;;;-60
2019/10/14 08:25:35;;;;;;;2.13;1.91;;;;;;;20.44;57.80;100467.59;;;;-58
2019/10/14 08:28:35;;;;;;;1.95;1.71;;;;;;;20.46;57.99;100461.70;;;;-57
2019/10/14 08:31:35;;;;;;;4.26;1.81;;;;;;;20.46;57.91;100459.69;;;;-52
2019/10/14 08:34:35;;;;;;;2.04;1.83;;;;;;;20.48;57.94;100461.95;;;;-51
2019/10/14 08:37:35;;;;;;;2.27;1.90;;;;;;;20.48;58.02;100461.68;;;;-52
2019/10/14 08:40:35;;;;;;;2.09;1.96;;;;;;;20.49;58.06;100462.73;;;;-51
2019/10/14 08:43:35;;;;;;;2.25;2.05;;;;;;;20.50;58.11;100460.19;;;;-51
2019/10/14 08:46:35;;;;;;;2.62;1.93;;;;;;;20.50;58.13;100455.32;;;;-53
2019/10/14 08:49:35;;;;;;;2.20;2.00;;;;;;;20.52;58.13;100459.59;;;;-51
2019/10/14 08:52:36;;;;;;;2.10;1.90;;;;;;;20.53;58.17;100459.26;;;;-51
2019/10/14 08:55:35;;;;;;;2.35;2.07;;;;;;;20.53;58.21;100455.84;;;;-49
2019/10/14 08:58:35;;;;;;;3.61;1.99;;;;;;;20.53;58.25;100454.73;;;;-51
2019/10/14 09:01:35;;;;;;;2.85;1.98;;;;;;;20.52;58.01;100457.84;;;;-51
2019/10/14 09:04:35;;;;;;;4.55;2.05;;;;;;;20.52;58.18;100457.71;;;;-58
2019/10/14 09:08:35;;;;;;;2.51;1.93;;;;;;;20.50;58.09;100456.05;;;;-58
2019/10/14 09:11:35;;;;;;;3.84;2.28;;;;;;;20.50;58.23;100454.65;;;;-51
2019/10/14 09:14:35;;;;;;;2.24;2.04;;;;;;;20.51;58.18;100449.78;;;;-49
2019/10/14 09:17:36;;;;;;;3.54;2.31;;;;;;;20.51;57.59;100453.14;;;;-51
2019/10/14 09:20:35;;;;;;;2.63;2.21;;;;;;;20.53;57.88;100453.53;;;;-47
2019/10/14 09:23:35;;;;;;;6.11;2.34;;;;;;;20.54;57.96;100456.39;;;;-47
2019/10/14 09:26:36;;;;;;;3.69;2.19;;;;;;;20.55;57.81;100454.58;;;;-51
2019/10/14 09:29:35;;;;;;;4.32;2.24;;;;;;;20.56;57.84;100450.26;;;;-58
2019/10/14 09:32:35;;;;;;;10.98;2.30;;;;;;;20.56;57.73;100447.17;;;;-60
2019/10/14 09:35:36;;;;;;;4.20;2.33;;;;;;;20.56;57.65;100443.21;;;;-56
2019/10/14 09:38:35;;;;;;;3.80;2.21;;;;;;;20.54;57.77;100444.34;;;;-62
2019/10/14 09:41:35;;;;;;;2.77;2.17;;;;;;;20.53;57.84;100440.91;;;;-56
2019/10/14 09:44:35;;;;;;;2.31;2.11;;;;;;;20.52;57.73;100441.91;;;;-55
2019/10/14 09:47:35;;;;;;;3.65;2.32;;;;;;;20.52;57.70;100433.99;;;;-63
2019/10/14 09:50:35;;;;;;;2.65;2.11;;;;;;;20.51;57.67;100431.30;;;;-56
2019/10/14 09:53:35;;;;;;;4.35;2.06;;;;;;;20.51;57.70;100430.33;;;;-62
2019/10/14 09:56:35;;;;;;;3.13;2.07;;;;;;;20.50;57.63;100428.14;;;;-55
2019/10/14 09:59:35;;;;;;;3.57;2.25;;;;;;;20.50;57.61;100424.41;;;;-51
2019/10/14 10:02:35;;;;;;;3.05;2.32;;;;;;;20.49;57.60;100421.33;;;;-53
2019/10/14 10:05:36;;;;;;;2.34;2.14;;;;;;;20.49;57.57;100423.97;;;;-51
2019/10/14 10:08:35;;;;;;;2.32;2.00;;;;;;;20.48;57.54;100419.23;;;;-62
2019/10/14 10:11:35;;;;;;;2.34;2.13;;;;;;;20.48;57.52;100419.73;;;;-51
2019/10/14 10:14:35;;;;;;;2.55;2.09;;;;;;;20.48;57.49;100413.70;;;;-55
2019/10/14 10:17:35;;;;;;;10.65;2.90;;;;;;;20.46;57.66;100409.63;;;;-57
2019/10/14 10:20:35;;;;;;;9.33;2.34;;;;;;;20.47;57.99;100406.48;;;;-46
2019/10/14 10:23:35;;;;;;;5.11;2.46;;;;;;;20.50;58.03;100401.77;;;;-60
2019/10/14 10:26:35;;;;;;;6.55;2.57;;;;;;;20.50;57.95;100399.35;;;;-60
2019/10/14 10:29:35;;;;;;;5.17;2.48;;;;;;;20.51;58.10;100394.06;;;;-60
2019/10/14 10:32:35;;;;;;;7.84;2.34;;;;;;;20.50;58.05;100391.73;;;;-51
2019/10/14 10:35:35;;;;;;;4.68;2.32;;;;;;;20.50;57.99;100385.49;;;;-51
2019/10/14 10:38:35;;;;;;;5.96;2.33;;;;;;;20.50;57.98;100384.25;;;;-47
2019/10/14 10:41:35;;;;;;;5.62;2.28;;;;;;;20.49;57.91;100381.06;;;;-60
2019/10/14 10:44:36;;;;;;;5.47;2.45;;;;;;;20.48;57.84;100371.30;;;;-60
2019/10/14 10:47:35;;;;;;;6.09;2.43;;;;;;;20.48;57.80;100367.94;;;;-52
2019/10/14 10:50:35;;;;;;;6.33;2.37;;;;;;;20.47;57.78;100361.19;;;;-60
2019/10/14 10:53:35;;;;;;;6.59;2.37;;;;;;;20.48;57.68;100359.28;;;;-47
2019/10/14 10:56:35;;;;;;;8.70;2.51;;;;;;;20.46;57.84;100354.77;;;;-48
2019/10/14 10:59:36;;;;;;;7.78;2.38;;;;;;;20.48;57.77;100347.44;;;;-47
2019/10/14 11:02:35;;;;;;;6.92;2.34;;;;;;;20.49;57.74;100344.22;;;;-51
2019/10/14 11:05:35;;;;;;;5.15;2.20;;;;;;;20.49;57.83;100339.45;;;;-51
2019/10/14 11:08:35;;;;;;;4.67;2.31;;;;;;;20.48;57.73;100338.37;;;;-58
2019/10/14 11:11:35;;;;;;;5.85;2.48;;;;;;;20.48;57.73;100335.13;;;;-49
2019/10/14 11:14:35;;;;;;;4.24;2.13;;;;;;;20.47;57.70;100325.25;;;;-51
2019/10/14 11:17:35;;;;;;;4.35;2.15;;;;;;;20.47;57.71;100324.75;;;;-51
2019/10/14 11:20:35;;;;;;;4.29;2.14;;;;;;;20.46;57.68;100317.70;;;;-51
2019/10/14 11:23:35;;;;;;;5.23;2.23;;;;;;;20.45;57.66;100306.59;;;;-48
2019/10/14 11:26:35;;;;;;;5.81;2.27;;;;;;;20.45;57.64;100303.13;;;;-51
2019/10/14 11:29:36;;;;;;;3.72;2.07;;;;;;;20.45;57.59;100300.62;;;;-58
2019/10/14 11:32:36;;;;;;;4.13;2.20;;;;;;;20.44;57.61;100295.28;;;;-51
2019/10/14 11:35:36;;;;;;;5.36;2.02;;;;;;;20.42;57.59;100285.31;;;;-59
2019/10/14 11:38:35;;;;;;;3.70;2.14;;;;;;;20.42;57.60;100284.23;;;;-51
2019/10/14 11:41:35;;;;;;;3.97;2.09;;;;;;;20.42;57.57;100276.52;;;;-51
2019/10/14 11:44:35;;;;;;;3.63;2.09;;;;;;;20.41;57.54;100270.17;;;;-49
2019/10/14 11:47:35;;;;;;;3.83;2.17;;;;;;;20.41;57.54;100268.83;;;;-51
2019/10/14 11:50:35;;;;;;;5.69;2.19;;;;;;;20.41;57.73;100263.90;;;;-49
2019/10/14 11:53:35;;;;;;;5.53;2.25;;;;;;;20.43;57.70;100256.26;;;;-50
2019/10/14 11:56:35;;;;;;;4.65;2.21;;;;;;;20.44;57.76;100249.52;;;;-53
2019/10/14 11:59:35;;;;;;;4.37;2.06;;;;;;;20.47;57.75;100244.16;;;;-50
2019/10/14 12:02:36;;;;;;;3.65;2.10;;;;;;;20.48;57.77;100238.77;;;;-54
2019/10/14 12:05:35;;;;;;;5.11;2.01;;;;;;;20.48;57.77;100231.62;;;;-52
2019/10/14 12:08:35;;;;;;;2.71;2.07;;;;;;;20.49;57.77;100233.84;;;;-57
2019/10/14 12:11:35;;;;;;;4.66;2.13;;;;;;;20.48;57.80;100232.09;;;;-61
2019/10/14 12:14:35;;;;;;;5.47;2.07;;;;;;;20.48;57.85;100230.34;;;;-61
2019/10/14 12:17:35;;;;;;;4.30;2.21;;;;;;;20.45;57.85;100225.07;;;;-52
2019/10/14 12:20:35;;;;;;;4.60;2.21;;;;;;;20.45;57.83;100221.51;;;;-60
2019/10/14 12:23:35;;;;;;;2.88;2.02;;;;;;;20.45;57.78;100215.57;;;;-61
2019/10/14 12:26:35;;;;;;;3.61;2.09;;;;;;;20.44;57.76;100214.63;;;;-61
2019/10/14 12:29:35;;;;;;;5.07;1.96;;;;;;;20.44;57.75;100208.49;;;;-53
2019/10/14 12:32:35;;;;;;;4.51;2.00;;;;;;;20.44;57.75;100203.13;;;;-53
2019/10/14 12:35:35;;;;;;;2.42;1.90;;;;;;;20.41;57.73;100196.47;;;;-56
2019/10/14 12:38:35;;;;;;;3.06;2.00;;;;;;;20.42;57.67;100198.35;;;;-55
2019/10/14 12:41:36;;;;;;;2.95;2.12;;;;;;;20.42;57.66;100197.58;;;;-54
2019/10/14 12:44:35;;;;;;;3.88;2.10;;;;;;;20.42;57.95;100187.52;;;;-50
2019/10/14 12:47:36;;;;;;;2.43;1.99;;;;;;;20.44;57.81;100181.66;;;;-48
2019/10/14 12:50:35;;;;;;;3.48;2.08;;;;;;;20.46;57.85;100176.92;;;;-48
2019/10/14 12:53:37;;;;;;;4.16;2.10;;;;;;;20.46;57.84;100168.80;;;;-49
2019/10/14 12:56:35;;;;;;;6.17;2.20;;;;;;;20.47;57.80;100164.31;;;;-51
2019/10/14 12:59:35;;;;;;;3.47;1.95;;;;;;;20.48;57.82;100161.39;;;;-51
2019/10/14 13:02:35;;;;;;;3.05;1.83;;;;;;;20.48;57.83;100161.00;;;;-54
2019/10/14 13:05:35;;;;;;;2.72;1.99;;;;;;;20.49;57.85;100156.44;;;;-46
2019/10/14 13:08:35;;;;;;;2.61;2.06;;;;;;;20.49;57.96;100154.55;;;;-45
2019/10/14 13:11:35;;;;;;;3.18;2.03;;;;;;;20.50;57.91;100151.77;;;;-46
2019/10/14 13:14:35;;;;;;;3.16;1.87;;;;;;;20.50;57.96;100143.95;;;;-47
2019/10/14 13:17:36;;;;;;;3.26;2.00;;;;;;;20.51;58.01;100137.18;;;;-47
2019/10/14 13:20:35;;;;;;;3.51;2.20;;;;;;;20.51;57.95;100137.38;;;;-53
2019/10/14 13:23:35;;;;;;;3.70;2.13;;;;;;;20.51;58.02;100131.67;;;;-50
2019/10/14 13:26:35;;;;;;;5.04;2.10;;;;;;;20.53;58.26;100125.95;;;;-50
2019/10/14 13:29:35;;;;;;;4.27;2.31;;;;;;;20.51;58.12;100113.42;;;;-53
2019/10/14 13:32:35;;;;;;;3.28;2.21;;;;;;;20.50;58.03;100108.29;;;;-53
2019/10/14 13:35:35;;;;;;;3.34;2.03;;;;;;;20.50;57.99;100111.17;;;;-53
2019/10/14 13:38:35;;;;;;;2.85;2.09;;;;;;;20.50;57.96;100113.49;;;;-53
2019/10/14 13:41:35;;;;;;;3.73;2.00;;;;;;;20.49;58.16;100108.69;;;;-54
2019/10/14 13:44:35;;;;;;;5.79;2.14;;;;;;;20.50;57.96;100106.14;;;;-58
2019/10/14 13:47:35;;;;;;;3.77;1.89;;;;;;;20.52;57.91;100101.85;;;;-55
2019/10/14 13:50:35;;;;;;;3.81;2.03;;;;;;;20.52;57.86;100096.31;;;;-53
2019/10/14 13:53:35;;;;;;;3.74;1.99;;;;;;;20.52;57.93;100093.97;;;;-61
2019/10/14 13:56:35;;;;;;;2.63;1.88;;;;;;;20.53;57.90;100085.48;;;;-61
2019/10/14 13:59:37;;;;;;;3.16;1.94;;;;;;;20.54;57.87;100073.10;;;;-60
2019/10/14 14:02:35;;;;;;;3.66;2.12;;;;;;;20.54;57.98;100066.19;;;;-54
2019/10/14 14:05:35;;;;;;;3.73;2.15;;;;;;;20.55;58.05;100062.94;;;;-54
2019/10/14 14:08:35;;;;;;;5.89;1.99;;;;;;;20.56;58.09;100056.93;;;;-56
2019/10/14 14:11:36;;;;;;;3.31;1.99;;;;;;;20.57;58.47;100055.69;;;;-53
2019/10/14 14:14:35;;;;;;;4.81;2.26;;;;;;;20.56;58.23;100049.34;;;;-52
2019/10/14 14:17:35;;;;;;;6.00;2.45;;;;;;;20.56;58.39;100041.49;;;;-49
2019/10/14 14:20:35;;;;;;;5.49;2.49;;;;;;;20.57;58.26;100034.72;;;;-51
2019/10/14 14:23:35;;;;;;;3.48;2.12;;;;;;;20.57;58.19;100022.40;;;;-49
2019/10/14 14:26:35;;;;;;;4.33;2.14;;;;;;;20.57;58.17;100015.99;;;;-54
2019/10/14 14:29:35;;;;;;;5.37;2.28;;;;;;;20.57;58.20;100015.77;;;;-58
2019/10/14 14:32:35;;;;;;;4.27;2.29;;;;;;;20.57;58.29;100013.75;;;;-57
2019/10/14 14:35:35;;;;;;;7.48;2.16;;;;;;;20.59;58.18;100014.66;;;;-54
2019/10/14 14:38:35;;;;;;;8.03;2.33;;;;;;;20.60;58.34;100010.89;;;;-49
2019/10/14 14:41:35;;;;;;;8.77;2.24;;;;;;;20.60;58.37;100001.94;;;;-50
2019/10/14 14:44:35;;;;;;;3.22;2.02;;;;;;;20.61;58.19;99995.86;;;;-52
2019/10/14 14:47:36;;;;;;;4.91;2.20;;;;;;;20.58;58.17;99993.25;;;;-50
2019/10/14 14:50:35;;;;;;;5.44;2.17;;;;;;;20.59;58.23;99991.23;;;;-50
2019/10/14 14:53:35;;;;;;;4.01;2.20;;;;;;;20.58;58.17;99988.95;;;;-53
2019/10/14 14:56:35;;;;;;;4.87;2.24;;;;;;;20.58;58.06;99989.95;;;;-51
2019/10/14 14:59:35;;;;;;;5.09;2.13;;;;;;;20.57;58.04;99987.34;;;;-52
2019/10/14 15:02:35;;;;;;;4.67;2.33;;;;;;;20.56;58.01;99983.02;;;;-52
2019/10/14 15:05:35;;;;;;;3.09;2.07;;;;;;;20.55;57.99;99980.56;;;;-52
2019/10/14 15:08:35;;;;;;;4.71;2.11;;;;;;;20.54;57.96;99982.27;;;;-52
2019/10/14 15:11:35;;;;;;;4.47;2.23;;;;;;;20.53;58.00;99971.27;;;;-52
2019/10/14 15:14:35;;;;;;;4.13;2.11;;;;;;;20.53;58.00;99970.20;;;;-51
2019/10/14 15:17:35;;;;;;;3.67;2.19;;;;;;;20.53;57.87;99964.86;;;;-52
2019/10/14 15:20:35;;;;;;;4.57;2.05;;;;;;;20.52;57.93;99957.28;;;;-52
2019/10/14 15:23:36;;;;;;;5.23;2.11;;;;;;;20.53;57.88;99964.70;;;;-52
2019/10/14 15:26:35;;;;;;;3.69;2.17;;;;;;;20.51;57.88;99965.34;;;;-52
2019/10/14 15:29:35;;;;;;;4.70;1.99;;;;;;;20.51;57.84;99966.34;;;;-52
2019/10/14 15:32:35;;;;;;;5.79;2.20;;;;;;;20.50;57.87;99958.49;;;;-52
2019/10/14 15:35:35;;;;;;;4.05;2.23;;;;;;;20.49;57.88;99958.13;;;;-52
2019/10/14 15:38:35;;;;;;;3.56;1.95;;;;;;;20.49;57.81;99951.48;;;;-52
2019/10/14 15:41:35;;;;;;;4.05;2.20;;;;;;;20.49;57.84;99952.16;;;;-52
2019/10/14 15:44:35;;;;;;;3.71;2.11;;;;;;;20.48;57.82;99950.78;;;;-51
2019/10/14 15:47:35;;;;;;;3.70;2.05;;;;;;;20.47;57.83;99943.80;;;;-52
2019/10/14 15:50:35;;;;;;;4.75;1.99;;;;;;;20.46;57.82;99934.25;;;;-52
2019/10/14 15:53:35;;;;;;;3.71;2.02;;;;;;;20.46;57.79;99929.85;;;;-52
2019/10/14 15:56:35;;;;;;;3.88;2.08;;;;;;;20.46;57.78;99927.84;;;;-52
2019/10/14 15:59:35;;;;;;;3.92;1.97;;;;;;;20.46;57.79;99928.61;;;;-52
2019/10/14 16:02:36;;;;;;;3.55;2.19;;;;;;;20.45;57.76;99925.73;;;;-52
2019/10/14 16:05:35;;;;;;;3.82;2.09;;;;;;;20.45;57.80;99922.88;;;;-52
2019/10/14 16:08:35;;;;;;;4.11;1.92;;;;;;;20.45;57.76;99921.94;;;;-52
2019/10/14 16:11:35;;;;;;;3.73;2.02;;;;;;;20.45;57.75;99921.70;;;;-52
2019/10/14 16:14:35;;;;;;;3.11;2.09;;;;;;;20.44;57.74;99917.14;;;;-52
2019/10/14 16:17:35;;;;;;;3.06;1.90;;;;;;;20.43;57.74;99916.70;;;;-51
2019/10/14 16:20:35;;;;;;;3.23;1.90;;;;;;;20.43;57.74;99919.05;;;;-52
2019/10/14 16:23:35;;;;;;;5.03;1.95;;;;;;;20.42;57.95;99921.88;;;;-53
2019/10/14 16:26:35;;;;;;;3.05;2.00;;;;;;;20.43;58.03;99917.11;;;;-50
2019/10/14 16:29:35;;;;;;;2.76;1.99;;;;;;;20.44;58.09;99915.56;;;;-51
2019/10/14 16:32:35;;;;;;;3.83;2.11;;;;;;;20.47;58.13;99918.08;;;;-51
2019/10/14 16:35:35;;;;;;;2.72;1.89;;;;;;;20.47;58.21;99917.14;;;;-52
2019/10/14 16:38:35;;;;;;;2.93;2.01;;;;;;;20.48;58.21;99919.52;;;;-50
2019/10/14 16:41:35;;;;;;;2.49;1.89;;;;;;;20.49;58.19;99916.93;;;;-52
2019/10/14 16:44:35;;;;;;;2.66;1.97;;;;;;;20.49;58.38;99916.42;;;;-50
2019/10/14 16:47:35;;;;;;;4.03;1.96;;;;;;;20.50;58.31;99911.42;;;;-48
2019/10/14 16:50:35;;;;;;;2.81;1.97;;;;;;;20.51;58.39;99908.44;;;;-58